createdAt,value
2019-06-20T00:03:35.125Z,18.40
2019-06-20T00:08:39.863Z,18.40
2019-06-20T00:13:44.424Z,18.40
2019-06-20T00:18:48.900Z,18.50
2019-06-20T00:23:53.431Z,18.40
2019-06-20T00:28:57.722Z,18.30
2019-06-20T00:34:02.367Z,18.30
2019-06-20T00:39:07.643Z,18.40
2019-06-20T00:44:11.991Z,18.20
2019-06-20T00:49:16.338Z,18.10
2019-06-20T00:54:20.967Z,18.10
2019-06-20T00:59:25.273Z,18.10
2019-06-20T01:04:29.722Z,18.00
2019-06-20T01:09:34.040Z,17.90
2019-06-20T01:14:38.586Z,17.80
2019-06-20T01:19:42.888Z,17.80
2019-06-20T01:24:47.283Z,17.70
2019-06-20T01:29:51.736Z,17.70
2019-06-20T01:34:56.206Z,17.60
2019-06-20T01:40:00.546Z,17.60
2019-06-20T01:45:05.935Z,17.40
2019-06-20T01:50:10.354Z,17.50
2019-06-20T01:55:14.757Z,17.50
2019-06-20T02:00:53.483Z,17.50
2019-06-20T02:05:57.917Z,17.30
2019-06-20T02:11:02.265Z,17.30
2019-06-20T02:16:06.894Z,17.20
2019-06-20T02:21:11.742Z,17.10
2019-06-20T02:26:16.189Z,17.00
2019-06-20T02:31:20.637Z,16.90
2019-06-20T02:36:25.422Z,16.80
2019-06-20T02:41:29.809Z,16.80
2019-06-20T02:46:34.262Z,16.80
2019-06-20T02:51:39.328Z,16.80
2019-06-20T02:56:43.771Z,16.70
2019-06-20T03:01:48.575Z,16.80
2019-06-20T03:06:53.001Z,16.70
2019-06-20T03:11:57.700Z,16.70
2019-06-20T03:17:02.203Z,16.70
2019-06-20T03:22:06.522Z,16.70
2019-06-20T03:27:11.166Z,16.70
2019-06-20T03:32:15.904Z,16.70
2019-06-20T03:37:20.259Z,16.60
2019-06-20T03:42:24.596Z,16.70
2019-06-20T03:47:28.895Z,16.80
2019-06-20T03:52:33.259Z,16.80
2019-06-20T03:57:37.665Z,16.80
2019-06-20T04:02:42.321Z,16.90
2019-06-20T04:07:46.904Z,16.90
2019-06-20T04:12:51.507Z,16.90
2019-06-20T04:17:56.370Z,17.10
2019-06-20T04:23:00.736Z,17.00
2019-06-20T04:28:05.416Z,17.10
2019-06-20T04:33:09.783Z,17.10
2019-06-20T04:38:14.304Z,17.00
2019-06-20T04:43:18.739Z,16.90
2019-06-20T04:48:23.333Z,16.90
2019-06-20T04:53:27.724Z,17.00
2019-06-20T04:58:32.254Z,17.00
2019-06-20T05:03:36.659Z,17.20
2019-06-20T05:08:41.636Z,17.10
2019-06-20T05:13:46.067Z,17.10
2019-06-20T05:18:50.580Z,17.20
2019-06-20T05:23:55.131Z,17.20
2019-06-20T05:28:59.647Z,17.30
2019-06-20T05:34:04.210Z,17.40
2019-06-20T05:39:08.862Z,17.40
2019-06-20T05:44:13.395Z,17.30
2019-06-20T05:49:19.045Z,17.30
2019-06-20T05:54:23.795Z,17.20
2019-06-20T05:59:28.222Z,17.30
2019-06-20T06:04:32.911Z,17.30
2019-06-20T06:09:37.188Z,17.50
2019-06-20T06:14:41.716Z,17.40
2019-06-20T06:19:46.347Z,17.50
2019-06-20T06:24:50.873Z,17.40
2019-06-20T06:29:55.455Z,17.60
2019-06-20T06:34:59.953Z,17.70
2019-06-20T06:40:05.459Z,17.70
2019-06-20T06:45:10.941Z,17.90
2019-06-20T06:50:16.014Z,18.10
2019-06-20T06:55:20.650Z,18.50
2019-06-20T07:00:25.006Z,19.00
2019-06-20T07:05:29.322Z,19.30
2019-06-20T07:10:34.299Z,18.90
2019-06-20T07:15:38.755Z,18.40
2019-06-20T07:20:43.216Z,18.40
2019-06-20T07:25:47.674Z,18.20
2019-06-20T07:30:52.064Z,18.20
2019-06-20T07:35:56.389Z,18.20
2019-06-20T07:41:00.947Z,18.50
2019-06-20T07:46:05.370Z,18.80
2019-06-20T07:51:09.803Z,18.90
2019-06-20T07:56:14.196Z,19.10
2019-06-20T08:01:18.715Z,19.80
2019-06-20T08:06:23.194Z,20.10
2019-06-20T08:11:27.623Z,20.20
2019-06-20T08:16:32.138Z,19.80
2019-06-20T08:21:36.466Z,19.80
2019-06-20T08:26:40.837Z,19.50
2019-06-20T08:31:45.250Z,19.50
2019-06-20T08:36:49.695Z,19.30
2019-06-20T08:41:54.014Z,19.60
2019-06-20T08:47:00.256Z,19.60
2019-06-20T08:52:05.515Z,19.50
2019-06-20T08:57:10.135Z,19.90
2019-06-20T09:02:14.672Z,20.10
2019-06-20T09:07:18.987Z,20.60
2019-06-20T09:12:23.445Z,20.80
2019-06-20T09:17:27.894Z,21.00
2019-06-20T09:22:32.604Z,21.00
2019-06-20T09:27:36.926Z,21.30
2019-06-20T09:32:41.401Z,21.60
2019-06-20T09:37:45.730Z,21.50
2019-06-20T09:42:51.158Z,21.10
2019-06-20T09:47:56.060Z,21.60
2019-06-20T09:53:00.403Z,21.90
2019-06-20T09:58:05.081Z,21.90
2019-06-20T10:03:10.021Z,22.20
2019-06-20T10:08:16.778Z,22.50
2019-06-20T10:13:21.295Z,22.70
2019-06-20T10:18:27.255Z,22.80
2019-06-20T10:23:31.578Z,22.80
2019-06-20T10:28:35.870Z,22.40
2019-06-20T10:33:40.209Z,22.50
2019-06-20T10:38:45.319Z,23.10
2019-06-20T10:43:51.754Z,23.40
2019-06-20T10:48:56.092Z,23.40
2019-06-20T10:54:00.474Z,23.00
2019-06-20T10:59:05.065Z,22.30
2019-06-20T11:04:09.438Z,22.00
2019-06-20T11:09:13.843Z,21.80
2019-06-20T11:14:18.169Z,22.00
2019-06-20T11:19:22.442Z,22.50
2019-06-20T11:24:26.696Z,22.70
2019-06-20T11:29:30.968Z,23.00
2019-06-20T11:34:35.226Z,23.50
2019-06-20T11:39:40.762Z,23.00
2019-06-20T11:44:45.426Z,23.10
2019-06-20T11:49:49.717Z,23.60
2019-06-20T11:54:54.060Z,23.80
2019-06-20T11:59:58.422Z,23.70
2019-06-20T12:05:02.837Z,23.60
2019-06-20T12:10:07.449Z,24.00
2019-06-20T12:15:12.487Z,24.40
2019-06-20T12:20:16.995Z,24.60
2019-06-20T12:25:21.254Z,23.90
2019-06-20T12:30:25.646Z,23.20
2019-06-20T12:35:29.952Z,22.80
2019-06-20T12:40:34.266Z,22.90
2019-06-20T12:45:40.023Z,23.00
2019-06-20T12:50:45.148Z,23.40
2019-06-20T12:55:50.746Z,23.40
2019-06-20T13:00:55.169Z,23.90
2019-06-20T13:05:59.475Z,24.10
2019-06-20T13:11:03.747Z,24.00
2019-06-20T13:16:08.066Z,23.50
2019-06-20T13:21:12.319Z,23.60
2019-06-20T13:26:16.591Z,24.00
2019-06-20T13:31:21.141Z,23.80
2019-06-20T13:36:25.406Z,23.50
2019-06-20T13:41:29.725Z,23.30
2019-06-20T13:46:34.035Z,23.20
2019-06-20T13:51:39.928Z,23.40
2019-06-20T13:56:45.362Z,23.70
2019-06-20T14:01:49.691Z,23.80
2019-06-20T14:06:53.991Z,23.60
2019-06-20T14:11:58.299Z,23.70
2019-06-20T14:17:02.642Z,23.80
2019-06-20T14:22:06.890Z,24.00
2019-06-20T14:27:11.166Z,23.70
2019-06-20T14:32:22.161Z,23.20
2019-06-20T14:37:21.438Z,22.40
2019-06-20T14:42:25.634Z,22.20
2019-06-20T14:47:29.904Z,22.30
2019-06-20T14:52:34.209Z,22.30
2019-06-20T14:57:38.614Z,22.10
2019-06-20T15:02:45.102Z,22.10
2019-06-20T15:07:49.499Z,22.10
2019-06-20T15:12:55.887Z,22.10
2019-06-20T15:18:00.553Z,22.10
2019-06-20T15:23:04.932Z,21.80
2019-06-20T15:28:09.232Z,21.90
2019-06-20T15:33:13.647Z,21.80
2019-06-20T15:38:17.920Z,21.60
2019-06-20T15:43:22.271Z,21.60
2019-06-20T15:48:26.597Z,21.60
2019-06-20T15:53:31.028Z,21.50
2019-06-20T15:58:35.350Z,21.50
2019-06-20T16:03:39.635Z,21.50
2019-06-20T16:08:43.988Z,21.20
2019-06-20T16:13:50.209Z,21.20
2019-06-20T16:18:54.652Z,21.70
2019-06-20T16:23:59.062Z,21.90
2019-06-20T16:29:03.474Z,21.80
2019-06-20T16:34:07.773Z,21.70
2019-06-20T16:39:12.302Z,21.60
2019-06-20T16:44:16.686Z,21.40
2019-06-20T16:49:21.022Z,21.50
2019-06-20T16:54:25.270Z,21.60
2019-06-20T16:59:29.552Z,21.60
2019-06-20T17:04:33.901Z,21.80
2019-06-20T17:09:38.185Z,21.90
2019-06-20T17:14:42.499Z,21.70
2019-06-20T17:19:46.794Z,21.50
2019-06-20T17:24:51.089Z,21.30
2019-06-20T17:29:55.477Z,21.40
2019-06-20T17:34:59.759Z,21.30
2019-06-20T17:40:04.807Z,21.20
2019-06-20T17:45:10.649Z,21.10
2019-06-20T17:50:15.519Z,21.20
2019-06-20T17:55:20.263Z,21.10
2019-06-20T18:00:26.179Z,21.00
2019-06-20T18:05:30.502Z,20.80
2019-06-20T18:10:34.830Z,20.90
2019-06-20T18:15:39.130Z,20.80
2019-06-20T18:20:43.483Z,20.70
2019-06-20T18:25:47.803Z,20.60
2019-06-20T18:30:52.114Z,20.60
2019-06-20T18:35:56.460Z,20.50
2019-06-20T18:41:00.745Z,20.30
2019-06-20T18:46:05.055Z,20.20
2019-06-20T18:51:09.385Z,20.10
2019-06-20T18:56:13.688Z,20.00
2019-06-20T19:01:18.035Z,20.00
2019-06-20T19:06:35.409Z,19.80
2019-06-20T19:11:28.638Z,19.50
2019-06-20T19:16:33.100Z,19.30
2019-06-20T19:21:37.439Z,19.20
2019-06-20T19:26:41.917Z,19.10
2019-06-20T19:31:47.129Z,19.20
2019-06-20T19:36:51.712Z,19.10
2019-06-20T19:41:56.118Z,18.90
2019-06-20T19:47:01.094Z,18.80
2019-06-20T19:52:05.458Z,18.70
2019-06-20T19:57:09.718Z,18.50
2019-06-20T20:02:14.092Z,18.50
2019-06-20T20:07:18.533Z,18.30
2019-06-20T20:12:22.867Z,18.20
2019-06-20T20:17:27.187Z,18.10
2019-06-20T20:22:31.671Z,17.90
2019-06-20T20:27:36.028Z,17.80
2019-06-20T20:32:40.422Z,17.70
2019-06-20T20:37:44.891Z,17.70
2019-06-20T20:42:49.395Z,17.60
2019-06-20T20:47:53.723Z,17.50
2019-06-20T20:52:58.055Z,17.20
2019-06-20T20:58:02.876Z,16.90
2019-06-20T21:03:07.649Z,16.70
2019-06-20T21:08:17.060Z,16.60
2019-06-20T21:13:30.497Z,16.30
2019-06-20T21:18:34.863Z,16.00
2019-06-20T21:23:39.428Z,15.90
2019-06-20T21:28:43.820Z,15.80
2019-06-20T21:33:48.277Z,15.70
2019-06-20T21:38:52.678Z,15.70
2019-06-20T21:43:56.994Z,15.40
2019-06-20T21:49:01.400Z,15.30
2019-06-20T21:54:06.021Z,15.10
2019-06-20T21:59:10.560Z,15.00
2019-06-20T22:04:14.978Z,14.80
2019-06-20T22:09:19.655Z,14.80
2019-06-20T22:14:24.006Z,14.50
2019-06-20T22:19:28.339Z,14.50
2019-06-20T22:24:32.809Z,14.60
2019-06-20T22:29:37.304Z,14.70
2019-06-20T22:34:41.710Z,14.40
2019-06-20T22:39:46.128Z,14.30
2019-06-20T22:44:50.495Z,14.40
2019-06-20T22:49:55.035Z,14.40
2019-06-20T22:54:59.527Z,14.30
2019-06-20T23:00:04.845Z,14.20
2019-06-20T23:05:09.601Z,14.20
2019-06-20T23:10:15.359Z,14.00
2019-06-20T23:15:19.911Z,13.90
2019-06-20T23:20:24.387Z,13.80
2019-06-20T23:25:29.804Z,13.70
2019-06-20T23:30:34.192Z,13.70
2019-06-20T23:35:38.950Z,13.80
2019-06-20T23:41:03.246Z,13.70
2019-06-20T23:46:07.571Z,13.70
2019-06-20T23:51:24.920Z,13.50
2019-06-20T23:56:19.415Z,13.60
